sensor_id;sensor_type;location;lat;lon;timestamp;noise_LAeq;noise_LA_min;noise_LA_max;noise_LA01;noise_LA95
68599;Laerm;18038;50.166;18.908;2023-09-08T00:01:20;39.30;33.47;53.88;;
68599;Laerm;18038;50.166;18.908;2023-09-08T00:04:29;37.07;33.62;49.20;;
68599;Laerm;18038;50.166;18.908;2023-09-08T00:07:44;37.53;33.66;51.74;;
68599;Laerm;18038;50.166;18.908;2023-09-08T00:11:17;38.98;33.19;53.85;;
68599;Laerm;18038;50.166;18.908;2023-09-08T00:14:25;39.02;33.47;55.23;;
68599;Laerm;18038;50.166;18.908;2023-09-08T00:17:32;39.46;32.88;52.94;;
68599;Laerm;18038;50.166;18.908;2023-09-08T00:20:41;37.76;33.27;54.83;;
68599;Laerm;18038;50.166;18.908;2023-09-08T00:23:49;40.29;33.74;56.30;;
68599;Laerm;18038;50.166;18.908;2023-09-08T00:27:03;37.62;33.78;50.27;;
68599;Laerm;18038;50.166;18.908;2023-09-08T00:30:28;39.23;33.26;54.95;;
68599;Laerm;18038;50.166;18.908;2023-09-08T00:33:36;37.94;33.06;50.22;;
68599;Laerm;18038;50.166;18.908;2023-09-08T00:36:45;41.03;33.30;54.10;;
68599;Laerm;18038;50.166;18.908;2023-09-08T00:39:53;38.39;33.60;52.49;;
68599;Laerm;18038;50.166;18.908;2023-09-08T00:43:10;39.39;33.62;59.02;;
68599;Laerm;18038;50.166;18.908;2023-09-08T00:46:20;37.55;34.20;47.25;;
68599;Laerm;18038;50.166;18.908;2023-09-08T00:49:29;34.96;33.12;42.47;;
68599;Laerm;18038;50.166;18.908;2023-09-08T00:52:38;38.16;34.81;48.32;;
68599;Laerm;18038;50.166;18.908;2023-09-08T00:55:45;40.13;34.08;54.26;;
68599;Laerm;18038;50.166;18.908;2023-09-08T00:58:56;41.67;34.08;54.17;;
68599;Laerm;18038;50.166;18.908;2023-09-08T01:02:16;37.07;33.44;49.33;;
68599;Laerm;18038;50.166;18.908;2023-09-08T01:05:25;36.11;33.29;44.97;;
68599;Laerm;18038;50.166;18.908;2023-09-08T01:08:32;40.27;34.60;54.26;;
68599;Laerm;18038;50.166;18.908;2023-09-08T01:11:41;41.87;34.49;56.38;;
68599;Laerm;18038;50.166;18.908;2023-09-08T01:14:54;35.69;33.57;39.53;;
68599;Laerm;18038;50.166;18.908;2023-09-08T01:18:02;37.85;33.93;49.32;;
68599;Laerm;18038;50.166;18.908;2023-09-08T01:21:52;40.51;33.12;57.12;;
68599;Laerm;18038;50.166;18.908;2023-09-08T01:25:22;35.92;33.86;48.65;;
68599;Laerm;18038;50.166;18.908;2023-09-08T01:28:33;40.34;33.48;55.49;;
68599;Laerm;18038;50.166;18.908;2023-09-08T01:31:43;42.25;32.97;57.30;;
68599;Laerm;18038;50.166;18.908;2023-09-08T01:34:51;36.98;34.01;47.64;;
68599;Laerm;18038;50.166;18.908;2023-09-08T01:38:00;37.41;34.48;50.59;;
68599;Laerm;18038;50.166;18.908;2023-09-08T01:41:10;41.39;34.77;55.96;;
68599;Laerm;18038;50.166;18.908;2023-09-08T01:44:19;40.81;34.30;55.44;;
68599;Laerm;18038;50.166;18.908;2023-09-08T01:47:29;42.12;35.74;55.68;;
68599;Laerm;18038;50.166;18.908;2023-09-08T01:50:38;36.47;34.22;42.31;;
68599;Laerm;18038;50.166;18.908;2023-09-08T01:53:45;35.70;33.35;40.07;;
68599;Laerm;18038;50.166;18.908;2023-09-08T01:56:56;41.88;34.46;57.83;;
68599;Laerm;18038;50.166;18.908;2023-09-08T02:00:05;41.39;34.20;60.54;;
68599;Laerm;18038;50.166;18.908;2023-09-08T02:03:16;43.01;33.92;57.11;;
68599;Laerm;18038;50.166;18.908;2023-09-08T02:06:24;40.89;34.40;54.06;;
68599;Laerm;18038;50.166;18.908;2023-09-08T02:09:33;42.34;34.31;57.74;;
68599;Laerm;18038;50.166;18.908;2023-09-08T02:12:43;40.37;34.70;54.40;;
68599;Laerm;18038;50.166;18.908;2023-09-08T02:15:51;43.79;34.74;55.88;;
68599;Laerm;18038;50.166;18.908;2023-09-08T02:18:59;41.61;34.34;58.05;;
68599;Laerm;18038;50.166;18.908;2023-09-08T02:22:07;43.45;35.67;56.13;;
68599;Laerm;18038;50.166;18.908;2023-09-08T02:25:15;39.83;36.16;51.20;;
68599;Laerm;18038;50.166;18.908;2023-09-08T02:28:26;41.53;34.85;56.01;;
68599;Laerm;18038;50.166;18.908;2023-09-08T02:31:34;42.42;34.97;55.37;;
68599;Laerm;18038;50.166;18.908;2023-09-08T02:34:44;42.68;35.36;59.20;;
68599;Laerm;18038;50.166;18.908;2023-09-08T02:37:53;41.05;34.30;54.58;;
68599;Laerm;18038;50.166;18.908;2023-09-08T02:41:03;42.00;34.59;55.79;;
68599;Laerm;18038;50.166;18.908;2023-09-08T02:44:13;43.95;34.92;56.00;;
68599;Laerm;18038;50.166;18.908;2023-09-08T02:47:21;45.48;34.97;58.31;;
68599;Laerm;18038;50.166;18.908;2023-09-08T02:50:30;45.61;36.84;56.67;;
68599;Laerm;18038;50.166;18.908;2023-09-08T02:53:38;42.95;36.16;56.07;;
68599;Laerm;18038;50.166;18.908;2023-09-08T02:56:45;46.27;36.89;57.39;;
68599;Laerm;18038;50.166;18.908;2023-09-08T02:59:58;43.61;36.04;59.84;;
68599;Laerm;18038;50.166;18.908;2023-09-08T03:03:05;46.87;36.48;56.61;;
68599;Laerm;18038;50.166;18.908;2023-09-08T03:06:17;44.97;37.37;57.33;;
68599;Laerm;18038;50.166;18.908;2023-09-08T03:09:26;44.95;37.32;54.74;;
68599;Laerm;18038;50.166;18.908;2023-09-08T03:12:35;47.71;37.75;60.52;;
68599;Laerm;18038;50.166;18.908;2023-09-08T03:15:45;49.51;39.14;60.04;;
68599;Laerm;18038;50.166;18.908;2023-09-08T03:18:53;46.37;38.36;56.94;;
68599;Laerm;18038;50.166;18.908;2023-09-08T03:22:00;47.22;38.10;55.49;;
68599;Laerm;18038;50.166;18.908;2023-09-08T03:25:08;47.75;37.95;60.42;;
68599;Laerm;18038;50.166;18.908;2023-09-08T03:28:19;48.00;39.40;56.22;;
68599;Laerm;18038;50.166;18.908;2023-09-08T03:31:31;48.44;40.88;56.25;;
68599;Laerm;18038;50.166;18.908;2023-09-08T03:34:38;48.68;39.84;59.89;;
68599;Laerm;18038;50.166;18.908;2023-09-08T03:37:47;48.73;40.96;59.56;;
68599;Laerm;18038;50.166;18.908;2023-09-08T03:40:55;46.73;40.07;55.26;;
68599;Laerm;18038;50.166;18.908;2023-09-08T03:44:03;49.02;40.66;57.30;;
68599;Laerm;18038;50.166;18.908;2023-09-08T03:47:13;50.25;41.77;59.46;;
68599;Laerm;18038;50.166;18.908;2023-09-08T03:50:22;51.10;41.74;58.52;;
68599;Laerm;18038;50.166;18.908;2023-09-08T03:53:31;48.47;34.07;74.35;;
68599;Laerm;18038;50.166;18.908;2023-09-08T03:56:40;49.93;33.70;79.32;;
68599;Laerm;18038;50.166;18.908;2023-09-08T03:59:47;39.49;35.12;46.79;;
68599;Laerm;18038;50.166;18.908;2023-09-08T04:02:58;39.78;37.40;43.25;;
68599;Laerm;18038;50.166;18.908;2023-09-08T04:06:06;39.50;35.80;44.63;;
68599;Laerm;18038;50.166;18.908;2023-09-08T04:09:14;39.34;37.22;42.38;;
68599;Laerm;18038;50.166;18.908;2023-09-08T04:12:22;39.36;36.90;42.66;;
68599;Laerm;18038;50.166;18.908;2023-09-08T04:15:30;39.49;36.18;43.11;;
68599;Laerm;18038;50.166;18.908;2023-09-08T04:18:39;39.53;36.61;42.49;;
68599;Laerm;18038;50.166;18.908;2023-09-08T04:21:48;39.43;37.50;43.74;;
68599;Laerm;18038;50.166;18.908;2023-09-08T04:24:55;39.63;37.11;42.33;;
68599;Laerm;18038;50.166;18.908;2023-09-08T04:28:10;40.12;36.44;43.62;;
68599;Laerm;18038;50.166;18.908;2023-09-08T04:31:19;39.38;33.68;48.97;;
68599;Laerm;18038;50.166;18.908;2023-09-08T04:34:30;39.40;33.67;44.75;;
68599;Laerm;18038;50.166;18.908;2023-09-08T04:37:38;39.98;34.45;46.95;;
68599;Laerm;18038;50.166;18.908;2023-09-08T04:40:50;39.48;33.89;44.42;;
68599;Laerm;18038;50.166;18.908;2023-09-08T04:43:57;39.16;34.23;44.58;;
68599;Laerm;18038;50.166;18.908;2023-09-08T04:47:08;40.17;34.89;47.04;;
68599;Laerm;18038;50.166;18.908;2023-09-08T04:50:19;40.14;34.45;44.38;;
68599;Laerm;18038;50.166;18.908;2023-09-08T04:53:30;40.55;34.84;44.90;;
68599;Laerm;18038;50.166;18.908;2023-09-08T04:56:38;41.06;37.25;45.21;;
68599;Laerm;18038;50.166;18.908;2023-09-08T04:59:47;40.54;35.48;43.87;;
68599;Laerm;18038;50.166;18.908;2023-09-08T05:02:55;40.56;35.64;44.58;;
68599;Laerm;18038;50.166;18.908;2023-09-08T05:06:06;40.49;35.35;50.80;;
68599;Laerm;18038;50.166;18.908;2023-09-08T05:09:13;40.51;34.81;45.28;;
68599;Laerm;18038;50.166;18.908;2023-09-08T05:12:22;40.02;34.14;47.33;;
68599;Laerm;18038;50.166;18.908;2023-09-08T05:15:29;39.58;34.12;45.91;;
68599;Laerm;18038;50.166;18.908;2023-09-08T05:18:40;39.16;34.12;42.75;;
68599;Laerm;18038;50.166;18.908;2023-09-08T05:21:54;53.24;34.32;80.07;;
68599;Laerm;18038;50.166;18.908;2023-09-08T05:25:03;48.91;34.96;72.43;;
68599;Laerm;18038;50.166;18.908;2023-09-08T05:28:11;50.86;42.04;64.42;;
68599;Laerm;18038;50.166;18.908;2023-09-08T05:31:20;52.57;44.00;63.67;;
68599;Laerm;18038;50.166;18.908;2023-09-08T05:34:28;50.99;44.10;63.29;;
68599;Laerm;18038;50.166;18.908;2023-09-08T05:37:39;52.91;43.74;72.79;;
68599;Laerm;18038;50.166;18.908;2023-09-08T05:40:46;52.43;43.39;66.69;;
68599;Laerm;18038;50.166;18.908;2023-09-08T05:43:54;56.62;42.92;74.95;;
68599;Laerm;18038;50.166;18.908;2023-09-08T05:47:02;51.31;42.05;62.05;;
68599;Laerm;18038;50.166;18.908;2023-09-08T05:50:10;55.35;43.10;78.88;;
68599;Laerm;18038;50.166;18.908;2023-09-08T05:53:21;50.80;42.16;58.05;;
68599;Laerm;18038;50.166;18.908;2023-09-08T05:56:31;51.38;41.62;59.91;;
68599;Laerm;18038;50.166;18.908;2023-09-08T05:59:39;51.39;43.07;61.05;;
68599;Laerm;18038;50.166;18.908;2023-09-08T06:02:47;50.94;41.34;60.06;;
68599;Laerm;18038;50.166;18.908;2023-09-08T06:05:55;49.19;40.73;59.29;;
68599;Laerm;18038;50.166;18.908;2023-09-08T06:09:06;49.39;42.16;68.39;;
68599;Laerm;18038;50.166;18.908;2023-09-08T06:12:16;49.63;43.18;61.78;;
68599;Laerm;18038;50.166;18.908;2023-09-08T06:15:25;49.83;40.01;59.42;;
68599;Laerm;18038;50.166;18.908;2023-09-08T06:18:33;49.93;40.33;59.82;;
68599;Laerm;18038;50.166;18.908;2023-09-08T06:21:49;50.38;40.94;60.09;;
68599;Laerm;18038;50.166;18.908;2023-09-08T06:25:00;50.09;39.99;58.94;;
68599;Laerm;18038;50.166;18.908;2023-09-08T06:28:09;51.14;40.06;59.22;;
68599;Laerm;18038;50.166;18.908;2023-09-08T06:31:16;51.07;40.59;63.66;;
68599;Laerm;18038;50.166;18.908;2023-09-08T06:34:25;52.48;41.19;72.53;;
68599;Laerm;18038;50.166;18.908;2023-09-08T06:37:35;50.06;37.91;57.29;;
68599;Laerm;18038;50.166;18.908;2023-09-08T06:40:48;49.01;38.69;57.18;;
68599;Laerm;18038;50.166;18.908;2023-09-08T06:43:57;50.14;38.63;63.53;;
68599;Laerm;18038;50.166;18.908;2023-09-08T06:47:12;50.01;37.97;61.38;;
68599;Laerm;18038;50.166;18.908;2023-09-08T06:50:20;50.62;40.31;58.38;;
68599;Laerm;18038;50.166;18.908;2023-09-08T06:53:28;48.76;39.79;56.83;;
68599;Laerm;18038;50.166;18.908;2023-09-08T06:56:39;47.65;40.86;56.99;;
68599;Laerm;18038;50.166;18.908;2023-09-08T06:59:48;50.39;42.65;74.18;;
68599;Laerm;18038;50.166;18.908;2023-09-08T07:02:58;49.32;42.59;57.35;;
68599;Laerm;18038;50.166;18.908;2023-09-08T07:06:07;51.05;39.31;65.96;;
68599;Laerm;18038;50.166;18.908;2023-09-08T07:09:15;50.71;38.38;69.70;;
68599;Laerm;18038;50.166;18.908;2023-09-08T07:12:27;48.92;38.53;57.36;;
68599;Laerm;18038;50.166;18.908;2023-09-08T07:15:34;49.00;38.27;58.13;;
68599;Laerm;18038;50.166;18.908;2023-09-08T07:18:43;49.64;39.41;59.34;;
68599;Laerm;18038;50.166;18.908;2023-09-08T07:21:53;49.89;39.47;60.43;;
68599;Laerm;18038;50.166;18.908;2023-09-08T07:25:10;50.79;39.66;62.23;;
68599;Laerm;18038;50.166;18.908;2023-09-08T07:28:21;49.21;39.25;56.42;;
68599;Laerm;18038;50.166;18.908;2023-09-08T07:31:32;49.82;38.81;57.80;;
68599;Laerm;18038;50.166;18.908;2023-09-08T07:34:44;49.50;40.11;60.12;;
68599;Laerm;18038;50.166;18.908;2023-09-08T07:37:53;49.73;38.31;60.66;;
68599;Laerm;18038;50.166;18.908;2023-09-08T07:41:02;50.45;39.56;65.52;;
68599;Laerm;18038;50.166;18.908;2023-09-08T07:44:13;50.95;41.26;64.86;;
68599;Laerm;18038;50.166;18.908;2023-09-08T07:47:20;49.74;38.34;59.28;;
68599;Laerm;18038;50.166;18.908;2023-09-08T07:50:29;50.22;39.93;57.75;;
68599;Laerm;18038;50.166;18.908;2023-09-08T07:53:36;52.96;39.88;72.66;;
68599;Laerm;18038;50.166;18.908;2023-09-08T07:56:45;51.14;41.71;63.55;;
68599;Laerm;18038;50.166;18.908;2023-09-08T07:59:55;50.05;42.26;59.68;;
68599;Laerm;18038;50.166;18.908;2023-09-08T08:03:03;47.63;37.67;57.20;;
68599;Laerm;18038;50.166;18.908;2023-09-08T08:06:11;49.94;38.92;60.46;;
68599;Laerm;18038;50.166;18.908;2023-09-08T08:09:19;48.83;39.28;56.34;;
68599;Laerm;18038;50.166;18.908;2023-09-08T08:12:27;49.63;38.68;57.04;;
68599;Laerm;18038;50.166;18.908;2023-09-08T08:15:40;49.67;40.86;60.81;;
68599;Laerm;18038;50.166;18.908;2023-09-08T08:18:49;48.97;38.98;59.63;;
68599;Laerm;18038;50.166;18.908;2023-09-08T08:21:57;49.20;38.76;59.32;;
68599;Laerm;18038;50.166;18.908;2023-09-08T08:25:05;49.63;39.77;59.27;;
68599;Laerm;18038;50.166;18.908;2023-09-08T08:28:20;50.20;39.95;59.05;;
68599;Laerm;18038;50.166;18.908;2023-09-08T08:31:31;48.85;38.87;60.97;;
68599;Laerm;18038;50.166;18.908;2023-09-08T08:34:39;48.67;39.49;57.69;;
68599;Laerm;18038;50.166;18.908;2023-09-08T08:37:46;48.43;38.65;56.98;;
68599;Laerm;18038;50.166;18.908;2023-09-08T08:40:57;49.24;37.35;60.88;;
68599;Laerm;18038;50.166;18.908;2023-09-08T08:44:09;49.29;38.48;61.65;;
68599;Laerm;18038;50.166;18.908;2023-09-08T08:47:20;48.71;37.15;58.36;;
68599;Laerm;18038;50.166;18.908;2023-09-08T08:50:28;48.86;39.70;61.33;;
68599;Laerm;18038;50.166;18.908;2023-09-08T08:53:39;50.08;38.67;59.70;;
68599;Laerm;18038;50.166;18.908;2023-09-08T08:56:48;49.91;39.33;60.25;;
68599;Laerm;18038;50.166;18.908;2023-09-08T08:59:57;51.47;40.79;63.41;;
68599;Laerm;18038;50.166;18.908;2023-09-08T09:03:09;48.14;37.95;56.89;;
68599;Laerm;18038;50.166;18.908;2023-09-08T09:06:20;49.10;37.61;66.20;;
68599;Laerm;18038;50.166;18.908;2023-09-08T09:09:28;51.92;39.82;73.96;;
68599;Laerm;18038;50.166;18.908;2023-09-08T09:12:37;63.78;38.25;85.52;;
68599;Laerm;18038;50.166;18.908;2023-09-08T09:15:45;49.81;38.62;59.37;;
68599;Laerm;18038;50.166;18.908;2023-09-08T09:18:59;49.40;40.21;58.19;;
68599;Laerm;18038;50.166;18.908;2023-09-08T09:22:07;48.88;37.58;59.72;;
68599;Laerm;18038;50.166;18.908;2023-09-08T09:25:22;49.08;38.71;61.20;;
68599;Laerm;18038;50.166;18.908;2023-09-08T09:28:30;49.21;38.41;60.81;;
68599;Laerm;18038;50.166;18.908;2023-09-08T09:31:50;48.56;37.31;57.78;;
68599;Laerm;18038;50.166;18.908;2023-09-08T09:35:02;50.35;39.49;75.86;;
68599;Laerm;18038;50.166;18.908;2023-09-08T09:38:11;48.97;37.63;57.99;;
68599;Laerm;18038;50.166;18.908;2023-09-08T09:41:18;52.26;39.62;71.71;;
68599;Laerm;18038;50.166;18.908;2023-09-08T09:44:30;50.18;39.80;61.69;;
68599;Laerm;18038;50.166;18.908;2023-09-08T09:47:38;49.77;38.52;67.11;;
68599;Laerm;18038;50.166;18.908;2023-09-08T09:50:50;50.04;39.63;57.59;;
68599;Laerm;18038;50.166;18.908;2023-09-08T09:53:58;48.87;40.81;57.78;;
68599;Laerm;18038;50.166;18.908;2023-09-08T09:57:08;49.07;39.81;59.95;;
68599;Laerm;18038;50.166;18.908;2023-09-08T10:00:24;51.49;38.42;63.37;;
68599;Laerm;18038;50.166;18.908;2023-09-08T10:03:43;50.63;41.74;56.81;;
68599;Laerm;18038;50.166;18.908;2023-09-08T10:07:01;47.79;40.78;54.27;;
68599;Laerm;18038;50.166;18.908;2023-09-08T10:10:10;49.36;39.49;59.62;;
68599;Laerm;18038;50.166;18.908;2023-09-08T10:13:27;48.45;38.81;60.34;;
68599;Laerm;18038;50.166;18.908;2023-09-08T10:16:43;49.38;38.16;60.66;;
68599;Laerm;18038;50.166;18.908;2023-09-08T10:20:00;49.44;38.32;58.58;;
68599;Laerm;18038;50.166;18.908;2023-09-08T10:23:28;49.42;37.68;57.64;;
68599;Laerm;18038;50.166;18.908;2023-09-08T10:26:43;50.16;37.71;66.82;;
68599;Laerm;18038;50.166;18.908;2023-09-08T10:29:54;48.66;38.60;56.54;;
68599;Laerm;18038;50.166;18.908;2023-09-08T10:33:04;47.87;38.91;61.06;;
68599;Laerm;18038;50.166;18.908;2023-09-08T10:36:14;49.56;39.68;59.54;;
68599;Laerm;18038;50.166;18.908;2023-09-08T10:39:33;48.49;39.69;56.41;;
68599;Laerm;18038;50.166;18.908;2023-09-08T10:42:44;50.32;38.49;59.29;;
68599;Laerm;18038;50.166;18.908;2023-09-08T10:45:52;50.28;40.03;59.27;;
68599;Laerm;18038;50.166;18.908;2023-09-08T10:49:05;49.50;39.41;59.48;;
68599;Laerm;18038;50.166;18.908;2023-09-08T10:52:17;49.18;39.29;56.63;;
68599;Laerm;18038;50.166;18.908;2023-09-08T10:55:40;49.17;38.88;57.47;;
68599;Laerm;18038;50.166;18.908;2023-09-08T10:58:59;51.04;39.83;62.13;;
68599;Laerm;18038;50.166;18.908;2023-09-08T11:02:35;49.27;37.83;58.71;;
68599;Laerm;18038;50.166;18.908;2023-09-08T11:05:43;50.39;38.57;65.85;;
68599;Laerm;18038;50.166;18.908;2023-09-08T11:08:52;48.77;37.74;58.23;;
68599;Laerm;18038;50.166;18.908;2023-09-08T11:12:07;50.97;39.59;65.77;;
68599;Laerm;18038;50.166;18.908;2023-09-08T11:15:16;51.15;39.98;67.74;;
68599;Laerm;18038;50.166;18.908;2023-09-08T11:18:26;50.73;39.32;63.10;;
68599;Laerm;18038;50.166;18.908;2023-09-08T11:21:34;51.83;39.02;66.99;;
68599;Laerm;18038;50.166;18.908;2023-09-08T11:24:45;48.56;38.85;54.80;;
68599;Laerm;18038;50.166;18.908;2023-09-08T11:27:57;50.77;39.05;61.00;;
68599;Laerm;18038;50.166;18.908;2023-09-08T11:31:05;50.35;39.11;56.84;;
68599;Laerm;18038;50.166;18.908;2023-09-08T11:34:13;48.48;38.61;55.44;;
68599;Laerm;18038;50.166;18.908;2023-09-08T11:37:21;50.01;37.97;64.99;;
68599;Laerm;18038;50.166;18.908;2023-09-08T11:40:30;49.94;39.43;59.79;;
68599;Laerm;18038;50.166;18.908;2023-09-08T11:43:42;52.12;39.53;68.99;;
68599;Laerm;18038;50.166;18.908;2023-09-08T11:46:50;49.91;38.48;63.91;;
68599;Laerm;18038;50.166;18.908;2023-09-08T11:49:58;49.70;39.58;67.07;;
68599;Laerm;18038;50.166;18.908;2023-09-08T11:53:06;49.78;36.71;59.24;;
68599;Laerm;18038;50.166;18.908;2023-09-08T11:56:14;48.47;37.45;59.65;;
68599;Laerm;18038;50.166;18.908;2023-09-08T11:59:25;49.82;39.26;59.26;;
68599;Laerm;18038;50.166;18.908;2023-09-08T12:02:36;49.37;37.94;58.08;;
68599;Laerm;18038;50.166;18.908;2023-09-08T12:05:51;50.52;40.60;62.25;;
68599;Laerm;18038;50.166;18.908;2023-09-08T12:09:01;49.03;38.34;56.72;;
68599;Laerm;18038;50.166;18.908;2023-09-08T12:12:11;49.88;39.30;56.97;;
68599;Laerm;18038;50.166;18.908;2023-09-08T12:15:33;50.31;40.26;58.11;;
68599;Laerm;18038;50.166;18.908;2023-09-08T12:18:53;51.32;40.35;61.66;;
68599;Laerm;18038;50.166;18.908;2023-09-08T12:22:03;50.53;40.34;58.65;;
68599;Laerm;18038;50.166;18.908;2023-09-08T12:25:13;50.61;39.39;60.88;;
68599;Laerm;18038;50.166;18.908;2023-09-08T12:28:21;52.53;39.12;63.01;;
68599;Laerm;18038;50.166;18.908;2023-09-08T12:31:32;50.44;39.74;64.00;;
68599;Laerm;18038;50.166;18.908;2023-09-08T12:34:43;50.78;40.21;60.80;;
68599;Laerm;18038;50.166;18.908;2023-09-08T12:38:00;50.15;39.73;60.87;;
68599;Laerm;18038;50.166;18.908;2023-09-08T12:41:18;49.87;39.24;60.93;;
68599;Laerm;18038;50.166;18.908;2023-09-08T12:44:26;49.72;39.48;58.36;;
68599;Laerm;18038;50.166;18.908;2023-09-08T12:47:36;50.23;40.10;59.42;;
68599;Laerm;18038;50.166;18.908;2023-09-08T12:50:45;51.49;39.44;69.17;;
68599;Laerm;18038;50.166;18.908;2023-09-08T12:53:56;50.41;40.97;58.49;;
68599;Laerm;18038;50.166;18.908;2023-09-08T12:57:05;49.82;38.97;59.37;;
68599;Laerm;18038;50.166;18.908;2023-09-08T13:00:14;51.10;41.64;59.95;;
68599;Laerm;18038;50.166;18.908;2023-09-08T13:03:24;50.23;39.53;61.27;;
68599;Laerm;18038;50.166;18.908;2023-09-08T13:06:33;51.54;39.05;63.91;;
68599;Laerm;18038;50.166;18.908;2023-09-08T13:09:41;51.41;40.29;59.30;;
68599;Laerm;18038;50.166;18.908;2023-09-08T13:12:48;50.01;40.75;58.97;;
68599;Laerm;18038;50.166;18.908;2023-09-08T13:15:57;52.74;41.14;67.33;;
68599;Laerm;18038;50.166;18.908;2023-09-08T13:19:07;50.09;39.40;58.45;;
68599;Laerm;18038;50.166;18.908;2023-09-08T13:22:15;50.98;40.05;64.97;;
68599;Laerm;18038;50.166;18.908;2023-09-08T13:25:22;50.21;39.91;59.37;;
68599;Laerm;18038;50.166;18.908;2023-09-08T13:28:31;51.06;39.13;61.82;;
68599;Laerm;18038;50.166;18.908;2023-09-08T13:31:39;50.73;39.03;65.21;;
68599;Laerm;18038;50.166;18.908;2023-09-08T13:34:49;53.17;38.79;69.47;;
68599;Laerm;18038;50.166;18.908;2023-09-08T13:37:57;49.74;38.75;59.29;;
68599;Laerm;18038;50.166;18.908;2023-09-08T13:41:08;52.19;41.73;64.47;;
68599;Laerm;18038;50.166;18.908;2023-09-08T13:44:16;54.83;39.86;72.48;;
68599;Laerm;18038;50.166;18.908;2023-09-08T13:47:24;49.55;38.88;65.27;;
68599;Laerm;18038;50.166;18.908;2023-09-08T13:50:35;50.43;38.52;61.88;;
68599;Laerm;18038;50.166;18.908;2023-09-08T13:53:44;51.06;40.93;63.81;;
68599;Laerm;18038;50.166;18.908;2023-09-08T13:56:59;52.04;40.71;64.70;;
68599;Laerm;18038;50.166;18.908;2023-09-08T14:00:14;50.09;42.01;57.21;;
68599;Laerm;18038;50.166;18.908;2023-09-08T14:03:27;51.05;39.89;63.72;;
68599;Laerm;18038;50.166;18.908;2023-09-08T14:06:55;50.86;40.05;57.85;;
68599;Laerm;18038;50.166;18.908;2023-09-08T14:10:11;50.67;39.35;57.77;;
68599;Laerm;18038;50.166;18.908;2023-09-08T14:13:31;51.05;41.83;61.07;;
68599;Laerm;18038;50.166;18.908;2023-09-08T14:16:40;50.66;39.47;60.89;;
68599;Laerm;18038;50.166;18.908;2023-09-08T14:19:48;51.40;39.82;60.99;;
68599;Laerm;18038;50.166;18.908;2023-09-08T14:22:58;50.57;39.11;58.11;;
68599;Laerm;18038;50.166;18.908;2023-09-08T14:26:06;50.77;41.85;59.07;;
68599;Laerm;18038;50.166;18.908;2023-09-08T14:29:13;50.24;40.92;58.42;;
68599;Laerm;18038;50.166;18.908;2023-09-08T14:32:21;49.94;39.90;58.22;;
68599;Laerm;18038;50.166;18.908;2023-09-08T14:35:29;50.65;38.32;63.25;;
68599;Laerm;18038;50.166;18.908;2023-09-08T14:38:39;49.26;39.39;56.86;;
68599;Laerm;18038;50.166;18.908;2023-09-08T14:41:48;48.92;37.77;55.74;;
68599;Laerm;18038;50.166;18.908;2023-09-08T14:44:57;48.12;37.82;56.19;;
68599;Laerm;18038;50.166;18.908;2023-09-08T14:48:05;49.69;39.40;59.46;;
68599;Laerm;18038;50.166;18.908;2023-09-08T14:51:14;50.03;41.17;57.10;;
68599;Laerm;18038;50.166;18.908;2023-09-08T14:54:25;50.40;41.45;57.14;;
68599;Laerm;18038;50.166;18.908;2023-09-08T14:57:33;48.84;39.46;57.40;;
68599;Laerm;18038;50.166;18.908;2023-09-08T15:00:41;51.28;39.93;62.22;;
68599;Laerm;18038;50.166;18.908;2023-09-08T15:03:55;49.46;38.23;62.45;;
68599;Laerm;18038;50.166;18.908;2023-09-08T15:07:15;50.37;39.90;58.22;;
68599;Laerm;18038;50.166;18.908;2023-09-08T15:10:27;50.26;39.01;61.55;;
68599;Laerm;18038;50.166;18.908;2023-09-08T15:13:38;51.05;38.37;64.37;;
68599;Laerm;18038;50.166;18.908;2023-09-08T15:16:46;50.37;39.87;60.73;;
68599;Laerm;18038;50.166;18.908;2023-09-08T15:19:54;49.09;37.34;56.44;;
68599;Laerm;18038;50.166;18.908;2023-09-08T15:23:04;49.36;37.22;57.08;;
68599;Laerm;18038;50.166;18.908;2023-09-08T15:26:14;50.35;38.16;59.01;;
68599;Laerm;18038;50.166;18.908;2023-09-08T15:29:46;49.38;37.09;57.33;;
68599;Laerm;18038;50.166;18.908;2023-09-08T15:32:53;50.54;40.70;58.67;;
68599;Laerm;18038;50.166;18.908;2023-09-08T15:36:08;50.59;38.03;60.35;;
68599;Laerm;18038;50.166;18.908;2023-09-08T15:39:17;49.12;37.86;59.04;;
68599;Laerm;18038;50.166;18.908;2023-09-08T15:42:27;51.03;39.40;62.03;;
68599;Laerm;18038;50.166;18.908;2023-09-08T15:45:35;51.25;38.92;59.60;;
68599;Laerm;18038;50.166;18.908;2023-09-08T15:48:43;47.76;36.89;56.36;;
68599;Laerm;18038;50.166;18.908;2023-09-08T15:51:50;50.02;38.42;61.81;;
68599;Laerm;18038;50.166;18.908;2023-09-08T15:55:18;48.47;37.88;59.50;;
68599;Laerm;18038;50.166;18.908;2023-09-08T15:58:28;53.56;38.76;70.71;;
68599;Laerm;18038;50.166;18.908;2023-09-08T16:01:36;49.76;40.00;57.55;;
68599;Laerm;18038;50.166;18.908;2023-09-08T16:04:44;48.77;37.63;62.69;;
68599;Laerm;18038;50.166;18.908;2023-09-08T16:07:52;50.46;37.05;62.07;;
68599;Laerm;18038;50.166;18.908;2023-09-08T16:11:01;50.93;39.67;63.48;;
68599;Laerm;18038;50.166;18.908;2023-09-08T16:14:11;49.43;37.85;57.85;;
68599;Laerm;18038;50.166;18.908;2023-09-08T16:17:22;49.62;39.20;57.80;;
68599;Laerm;18038;50.166;18.908;2023-09-08T16:20:31;49.64;39.30;63.75;;
68599;Laerm;18038;50.166;18.908;2023-09-08T16:23:39;50.71;38.57;64.59;;
68599;Laerm;18038;50.166;18.908;2023-09-08T16:26:47;47.96;38.27;55.69;;
68599;Laerm;18038;50.166;18.908;2023-09-08T16:29:57;49.17;38.51;59.97;;
68599;Laerm;18038;50.166;18.908;2023-09-08T16:33:05;49.77;38.36;63.16;;
68599;Laerm;18038;50.166;18.908;2023-09-08T16:36:12;50.16;38.12;58.69;;
68599;Laerm;18038;50.166;18.908;2023-09-08T16:39:21;48.36;38.58;57.25;;
68599;Laerm;18038;50.166;18.908;2023-09-08T16:42:28;48.50;38.35;58.31;;
68599;Laerm;18038;50.166;18.908;2023-09-08T16:45:39;48.85;37.80;59.57;;
68599;Laerm;18038;50.166;18.908;2023-09-08T16:48:46;47.84;38.56;59.33;;
68599;Laerm;18038;50.166;18.908;2023-09-08T16:51:54;48.60;38.57;56.30;;
68599;Laerm;18038;50.166;18.908;2023-09-08T16:55:02;48.83;39.22;58.27;;
68599;Laerm;18038;50.166;18.908;2023-09-08T16:58:16;48.20;38.84;57.34;;
68599;Laerm;18038;50.166;18.908;2023-09-08T17:01:26;47.32;38.60;60.29;;
68599;Laerm;18038;50.166;18.908;2023-09-08T17:04:34;48.73;38.68;62.38;;
68599;Laerm;18038;50.166;18.908;2023-09-08T17:07:42;51.08;39.13;62.52;;
68599;Laerm;18038;50.166;18.908;2023-09-08T17:10:51;48.76;38.54;57.80;;
68599;Laerm;18038;50.166;18.908;2023-09-08T17:14:01;57.97;40.40;81.18;;
68599;Laerm;18038;50.166;18.908;2023-09-08T17:17:11;48.91;38.36;64.90;;
68599;Laerm;18038;50.166;18.908;2023-09-08T17:20:19;47.32;38.71;59.83;;
68599;Laerm;18038;50.166;18.908;2023-09-08T17:23:27;48.14;39.34;58.07;;
68599;Laerm;18038;50.166;18.908;2023-09-08T17:26:34;50.20;40.47;65.95;;
68599;Laerm;18038;50.166;18.908;2023-09-08T17:29:43;48.97;38.89;62.77;;